Terminal Aerodrome Forecast
Issued by NWS

Home | Current Version | Previous Version | Text Only | Print | Product List | Glossary On
Versions: 1 2 3 4 5 6 7 8 9 10 11 12 13 14 15 16 17 18 19 20 21 22
000
FTUS46 KSTO 212320
TAFSCK
TAF
KSCK 212320Z 2200/2224 33011KT P6SM VCSH BKN050
      TEMPO 2200/2204 4SM SHRA BR OVC030
     FM220400 33006KT P6SM SCT050 SCT250
     FM221800 31010KT P6SM SCT030 SCT100=

USA.gov is the U.S. government's official web portal to all federal, state and local government web resources and services.